createdAt,value
2022-09-02T00:02:25.283Z,2.20
2022-09-02T00:04:53.168Z,2.03
2022-09-02T00:07:20.645Z,2.38
2022-09-02T00:09:47.882Z,2.08
2022-09-02T00:12:16.448Z,1.75
2022-09-02T00:14:44.004Z,2.28
2022-09-02T00:17:11.218Z,1.98
2022-09-02T00:19:38.783Z,1.70
2022-09-02T00:22:06.099Z,2.13
2022-09-02T00:24:33.842Z,1.83
2022-09-02T00:27:01.203Z,2.05
2022-09-02T00:29:29.284Z,2.28
2022-09-02T00:31:57.141Z,2.00
2022-09-02T00:34:25.279Z,1.83
2022-09-02T00:36:52.930Z,2.78
2022-09-02T00:39:20.869Z,2.03
2022-09-02T00:41:48.211Z,1.80
2022-09-02T00:44:18.285Z,2.03
2022-09-02T00:46:46.578Z,1.95
2022-09-02T00:49:24.884Z,1.83
2022-09-02T00:51:59.331Z,2.03
2022-09-02T00:54:29.608Z,1.90
2022-09-02T00:56:57.403Z,1.73
2022-09-02T00:59:39.578Z,2.15
2022-09-02T01:02:08.141Z,2.20
2022-09-02T01:04:36.298Z,1.90
2022-09-02T01:07:04.442Z,1.63
2022-09-02T01:09:33.384Z,2.10
2022-09-02T01:12:03.053Z,1.60
2022-09-02T01:14:30.984Z,1.98
2022-09-02T01:17:01.023Z,1.85
2022-09-02T01:19:32.317Z,2.55
2022-09-02T01:21:59.695Z,2.05
2022-09-02T01:24:30.895Z,2.10
2022-09-02T01:27:00.303Z,2.00
2022-09-02T01:29:28.624Z,2.28
2022-09-02T01:31:56.387Z,2.55
2022-09-02T01:34:24.330Z,2.30
2022-09-02T01:36:53.257Z,2.25
2022-09-02T01:39:20.686Z,1.60
2022-09-02T01:41:48.363Z,2.55
2022-09-02T01:44:17.737Z,2.00
2022-09-02T01:46:46.896Z,1.73
2022-09-02T01:49:14.579Z,1.77
2022-09-02T01:51:42.474Z,1.63
2022-09-02T01:54:10.028Z,2.65
2022-09-02T01:56:38.420Z,1.92
2022-09-02T01:59:07.918Z,1.85
2022-09-02T02:01:35.988Z,1.75
2022-09-02T02:04:04.522Z,2.15
2022-09-02T02:06:32.806Z,2.17
2022-09-02T02:09:00.718Z,2.22
2022-09-02T02:11:28.772Z,1.40
2022-09-02T02:14:00.551Z,1.92
2022-09-02T02:16:28.575Z,1.75
2022-09-02T02:18:56.114Z,1.83
2022-09-02T02:21:23.490Z,2.00
2022-09-02T02:23:52.388Z,1.85
2022-09-02T02:26:20.482Z,2.00
2022-09-02T02:28:49.427Z,1.88
2022-09-02T02:31:16.911Z,1.77
2022-09-02T02:33:44.499Z,1.38
2022-09-02T02:36:12.635Z,1.80
2022-09-02T02:38:41.267Z,1.75
2022-09-02T02:41:10.231Z,1.73
2022-09-02T02:43:38.134Z,2.00
2022-09-02T02:46:07.141Z,1.70
2022-09-02T02:48:36.573Z,2.10
2022-09-02T02:51:05.386Z,1.75
2022-09-02T02:53:36.343Z,1.60
2022-09-02T02:56:05.423Z,2.20
2022-09-02T02:58:32.928Z,1.75
2022-09-02T03:01:00.950Z,1.30
2022-09-02T03:03:30.038Z,1.90
2022-09-02T03:05:58.761Z,2.10
2022-09-02T03:08:27.949Z,1.90
2022-09-02T03:10:56.418Z,2.55
2022-09-02T03:13:29.594Z,2.17
2022-09-02T03:16:01.046Z,1.90
2022-09-02T03:18:28.667Z,2.35
2022-09-02T03:20:57.158Z,1.83
2022-09-02T03:23:25.097Z,2.30
2022-09-02T03:25:52.625Z,2.25
2022-09-02T03:28:36.348Z,1.88
2022-09-02T03:31:06.049Z,1.75
2022-09-02T03:33:34.026Z,2.00
2022-09-02T03:36:01.611Z,2.13
2022-09-02T03:38:29.359Z,1.50
2022-09-02T03:40:56.673Z,1.70
2022-09-02T03:43:25.007Z,1.60
2022-09-02T03:45:52.676Z,1.95
2022-09-02T03:48:23.152Z,1.90
2022-09-02T03:50:50.779Z,2.33
2022-09-02T03:53:20.504Z,2.22
2022-09-02T03:55:55.027Z,2.10
2022-09-02T03:58:25.357Z,2.22
2022-09-02T04:00:55.098Z,1.92
2022-09-02T04:03:24.790Z,1.88
2022-09-02T04:05:52.737Z,2.65
2022-09-02T04:08:23.628Z,2.00
2022-09-02T04:10:52.652Z,2.08
2022-09-02T04:13:20.245Z,2.58
2022-09-02T04:15:49.294Z,1.88
2022-09-02T04:18:57.235Z,1.80
2022-09-02T04:21:45.744Z,1.83
2022-09-02T04:24:13.615Z,2.53
2022-09-02T04:26:45.515Z,1.90
2022-09-02T04:29:16.519Z,1.95
2022-09-02T04:31:44.894Z,2.25
2022-09-02T04:34:12.419Z,2.10
2022-09-02T04:36:41.628Z,2.17
2022-09-02T04:39:12.646Z,1.88
2022-09-02T04:41:40.299Z,2.00
2022-09-02T04:44:10.195Z,2.03
2022-09-02T04:46:41.441Z,1.42
2022-09-02T04:49:13.771Z,1.77
2022-09-02T04:51:43.624Z,2.08
2022-09-02T04:54:19.175Z,1.80
2022-09-02T04:56:49.843Z,2.08
2022-09-02T04:59:20.459Z,2.10
2022-09-02T05:01:59.426Z,2.35
2022-09-02T05:04:31.167Z,1.98
2022-09-02T05:07:01.509Z,1.92
2022-09-02T05:09:31.537Z,1.98
2022-09-02T05:12:04.700Z,2.10
2022-09-02T05:14:40.028Z,2.03
2022-09-02T05:17:09.551Z,1.73
2022-09-02T05:19:40.322Z,1.95
2022-09-02T05:22:10.344Z,1.90
2022-09-02T05:24:42.716Z,1.70
2022-09-02T05:27:16.036Z,1.77
2022-09-02T05:29:45.487Z,1.90
2022-09-02T05:32:14.664Z,1.60
2022-09-02T05:34:43.564Z,2.63
2022-09-02T05:37:12.429Z,2.20
2022-09-02T05:39:39.968Z,2.42
2022-09-02T05:42:08.845Z,2.38
2022-09-02T05:44:36.868Z,1.58
2022-09-02T05:47:05.832Z,1.80
2022-09-02T05:49:33.793Z,1.70
2022-09-02T05:52:10.080Z,1.95
2022-09-02T05:54:41.719Z,1.77
2022-09-02T05:57:16.464Z,2.03
2022-09-02T06:00:07.583Z,2.05
2022-09-02T06:02:46.531Z,2.25
2022-09-02T06:05:21.821Z,2.47
2022-09-02T06:07:56.991Z,2.63
2022-09-02T06:10:25.070Z,2.95
2022-09-02T06:12:53.425Z,2.20
2022-09-02T06:15:23.712Z,2.22
2022-09-02T06:17:51.188Z,2.47
2022-09-02T06:20:18.956Z,2.67
2022-09-02T06:22:49.275Z,2.30
2022-09-02T06:25:20.884Z,2.83
2022-09-02T06:27:48.995Z,2.30
2022-09-02T06:30:16.615Z,2.55
2022-09-02T06:32:44.343Z,2.70
2022-09-02T06:35:18.572Z,2.13
2022-09-02T06:37:46.332Z,2.42
2022-09-02T06:40:14.623Z,2.08
2022-09-02T06:42:42.549Z,2.50
2022-09-02T06:45:27.216Z,2.03
2022-09-02T06:47:58.221Z,1.67
2022-09-02T06:50:26.719Z,1.70
2022-09-02T06:52:56.523Z,2.13
2022-09-02T06:55:24.609Z,1.77
2022-09-02T06:57:54.029Z,2.00
2022-09-02T07:00:21.916Z,2.13
2022-09-02T07:03:09.315Z,1.67
2022-09-02T07:05:37.695Z,1.75
2022-09-02T07:08:06.151Z,1.40
2022-09-02T07:10:40.871Z,1.90
2022-09-02T07:13:10.279Z,1.50
2022-09-02T07:15:40.783Z,1.88
2022-09-02T07:18:09.756Z,1.80
2022-09-02T07:20:38.070Z,1.10
2022-09-02T07:23:05.816Z,1.70
2022-09-02T07:25:38.243Z,1.30
2022-09-02T07:28:09.759Z,1.23
2022-09-02T07:30:40.190Z,1.33
2022-09-02T07:33:13.878Z,1.60
2022-09-02T07:35:43.813Z,1.10
2022-09-02T07:38:12.243Z,1.23
2022-09-02T07:40:41.197Z,1.08
2022-09-02T07:43:10.964Z,1.00
2022-09-02T07:45:39.335Z,1.38
2022-09-02T07:48:07.716Z,1.10
2022-09-02T07:50:37.431Z,1.33
2022-09-02T07:53:07.165Z,1.10
2022-09-02T07:55:36.980Z,1.10
2022-09-02T07:58:06.271Z,1.08
2022-09-02T08:00:36.103Z,1.40
2022-09-02T08:03:09.945Z,1.58
2022-09-02T08:05:42.308Z,1.15
2022-09-02T08:08:09.843Z,1.25
2022-09-02T08:10:38.022Z,1.35
2022-09-02T08:13:06.981Z,1.38
2022-09-02T08:15:35.953Z,1.05
2022-09-02T08:18:05.084Z,1.00
2022-09-02T08:20:33.169Z,1.33
2022-09-02T08:23:11.141Z,1.00
2022-09-02T08:25:40.952Z,1.10
2022-09-02T08:28:09.550Z,1.67
2022-09-02T08:30:36.995Z,2.10
2022-09-02T08:33:04.500Z,1.63
2022-09-02T08:35:31.921Z,1.02
2022-09-02T08:38:00.376Z,1.15
2022-09-02T08:40:41.897Z,0.80
2022-09-02T08:43:30.211Z,1.20
2022-09-02T08:46:05.137Z,1.02
2022-09-02T08:48:36.317Z,0.95
2022-09-02T08:51:10.057Z,0.98
2022-09-02T08:53:51.188Z,1.90
2022-09-02T08:56:19.130Z,1.10
2022-09-02T08:58:53.324Z,1.35
2022-09-02T09:01:41.535Z,1.45
2022-09-02T09:04:24.003Z,1.83
2022-09-02T09:07:17.996Z,2.13
2022-09-02T09:10:10.277Z,1.40
2022-09-02T09:12:47.724Z,1.20
2022-09-02T09:15:20.993Z,1.02
2022-09-02T09:17:59.888Z,1.55
2022-09-02T09:20:31.516Z,1.20
2022-09-02T09:23:00.847Z,3.33
2022-09-02T09:25:32.569Z,0.93
2022-09-02T09:28:01.089Z,1.42
2022-09-02T09:30:29.498Z,1.08
2022-09-02T09:33:01.255Z,1.35
2022-09-02T09:35:51.628Z,1.58
2022-09-02T09:38:30.336Z,0.90
2022-09-02T09:41:20.517Z,1.17
2022-09-02T09:43:48.003Z,1.13
2022-09-02T09:46:34.168Z,0.90
2022-09-02T09:49:01.537Z,1.05
2022-09-02T09:51:29.135Z,0.75
2022-09-02T09:54:15.857Z,0.88
2022-09-02T09:56:43.523Z,0.90
2022-09-02T09:59:42.345Z,2.08
2022-09-02T10:02:25.166Z,0.85
2022-09-02T10:04:54.307Z,1.13
2022-09-02T10:07:39.740Z,2.13
2022-09-02T10:10:21.848Z,0.90
2022-09-02T10:12:52.311Z,0.82
2022-09-02T10:15:44.609Z,0.80
2022-09-02T10:18:27.108Z,0.95
2022-09-02T10:21:15.626Z,1.13
2022-09-02T10:24:04.691Z,1.00
2022-09-02T10:26:46.924Z,1.00
2022-09-02T10:29:29.312Z,2.47
2022-09-02T10:32:15.423Z,0.90
2022-09-02T10:35:11.274Z,1.10
2022-09-02T10:37:57.756Z,2.08
2022-09-02T10:40:37.389Z,1.10
2022-09-02T10:43:07.097Z,0.90
2022-09-02T10:45:46.648Z,2.65
2022-09-02T10:48:39.390Z,0.90
2022-09-02T10:51:16.456Z,3.47
2022-09-02T10:54:11.722Z,1.10
2022-09-02T10:57:01.689Z,3.70
2022-09-02T10:59:49.243Z,0.73
2022-09-02T11:02:22.307Z,1.77
2022-09-02T11:04:56.462Z,0.77
2022-09-02T11:07:30.253Z,1.50
2022-09-02T11:10:06.781Z,1.45
2022-09-02T11:12:40.496Z,0.63
2022-09-02T11:15:11.172Z,0.80
2022-09-02T11:18:07.998Z,0.90
2022-09-02T11:21:09.220Z,0.80
2022-09-02T11:23:46.525Z,0.95
2022-09-02T11:26:38.168Z,1.00
2022-09-02T11:29:13.990Z,0.80
2022-09-02T11:32:00.879Z,1.00
2022-09-02T11:34:34.964Z,1.10
2022-09-02T11:37:10.689Z,0.80
2022-09-02T11:39:54.397Z,0.80
2022-09-02T11:42:37.335Z,1.05
2022-09-02T11:45:10.290Z,0.82
2022-09-02T11:47:50.815Z,1.13
2022-09-02T11:50:24.338Z,0.90
2022-09-02T11:53:01.492Z,0.80
2022-09-02T11:55:34.311Z,0.80
2022-09-02T11:58:02.583Z,0.73
2022-09-02T12:00:36.722Z,1.00
2022-09-02T12:03:12.028Z,0.93
2022-09-02T12:06:05.225Z,0.50
2022-09-02T12:08:34.909Z,0.85
2022-09-02T12:11:05.994Z,0.80
2022-09-02T12:13:45.714Z,0.77
2022-09-02T12:16:21.354Z,0.55
2022-09-02T12:18:54.590Z,1.13
2022-09-02T12:21:23.649Z,1.83
2022-09-02T12:23:53.264Z,1.67
2022-09-02T12:26:40.467Z,1.00
2022-09-02T12:29:30.339Z,0.73
2022-09-02T12:31:58.318Z,0.70
2022-09-02T12:34:28.624Z,0.93
2022-09-02T12:37:01.060Z,0.70
2022-09-02T12:39:29.367Z,0.75
2022-09-02T12:41:57.447Z,0.75
2022-09-02T12:45:11.831Z,1.40
2022-09-02T12:48:16.325Z,1.13
2022-09-02T12:50:44.029Z,0.88
2022-09-02T12:53:23.762Z,0.93
2022-09-02T12:55:58.698Z,0.90
2022-09-02T12:58:31.827Z,1.08
2022-09-02T13:01:47.852Z,0.98
2022-09-02T13:04:30.609Z,0.90
2022-09-02T13:07:28.908Z,0.93
2022-09-02T13:10:15.155Z,0.98
2022-09-02T13:13:20.871Z,0.77
2022-09-02T13:16:22.439Z,0.88
2022-09-02T13:19:23.527Z,0.98
2022-09-02T13:22:18.165Z,0.95
2022-09-02T13:25:10.034Z,2.25
2022-09-02T13:27:55.912Z,0.57
2022-09-02T13:31:00.249Z,0.80
2022-09-02T13:33:28.006Z,0.95
2022-09-02T13:35:59.004Z,1.23
2022-09-02T13:38:29.344Z,1.17
2022-09-02T13:40:57.101Z,0.82
2022-09-02T13:43:26.954Z,0.73
2022-09-02T13:46:02.194Z,0.95
2022-09-02T13:48:32.747Z,0.85
2022-09-02T13:51:13.753Z,0.85
2022-09-02T13:54:18.880Z,0.82
2022-09-02T13:56:36.547Z,0.80
2022-09-02T13:59:03.850Z,0.65
2022-09-02T14:01:34.578Z,0.70
2022-09-02T14:06:40.876Z,0.82
2022-09-02T14:09:19.313Z,0.60
2022-09-02T14:11:48.320Z,1.10
2022-09-02T14:14:18.685Z,0.63
2022-09-02T14:16:46.034Z,0.77
2022-09-02T14:19:16.884Z,0.80
2022-09-02T14:21:56.670Z,0.90
2022-09-02T14:24:29.112Z,0.93
2022-09-02T14:26:58.355Z,1.20
2022-09-02T14:29:28.508Z,1.10
2022-09-02T14:32:22.069Z,0.95
2022-09-02T14:35:08.734Z,0.90
2022-09-02T14:37:59.112Z,0.75
2022-09-02T14:40:36.123Z,0.90
2022-09-02T14:43:04.607Z,0.90
2022-09-02T14:45:34.546Z,1.10
2022-09-02T14:48:10.971Z,0.70
2022-09-02T14:50:39.762Z,1.08
2022-09-02T14:53:09.258Z,0.70
2022-09-02T14:55:52.613Z,0.82
2022-09-02T14:58:24.678Z,0.93
2022-09-02T15:01:00.189Z,1.17
2022-09-02T15:03:29.770Z,0.98
2022-09-02T15:05:57.402Z,0.90
2022-09-02T15:08:25.044Z,1.35
2022-09-02T15:10:54.652Z,0.88
2022-09-02T15:13:25.418Z,2.08
2022-09-02T15:15:55.279Z,2.88
2022-09-02T15:18:24.076Z,0.73
2022-09-02T15:20:52.453Z,0.88
2022-09-02T15:23:19.994Z,0.95
2022-09-02T15:25:47.912Z,0.77
2022-09-02T15:28:15.529Z,1.05
2022-09-02T15:30:43.193Z,1.10
2022-09-02T15:33:16.565Z,1.00
2022-09-02T15:35:47.355Z,0.55
2022-09-02T15:38:15.125Z,1.00
2022-09-02T15:40:45.186Z,0.70
2022-09-02T15:43:13.902Z,0.63
2022-09-02T15:45:47.300Z,0.80
2022-09-02T15:48:15.103Z,0.70
2022-09-02T15:50:42.899Z,0.80
2022-09-02T15:53:15.831Z,0.82
2022-09-02T15:55:43.726Z,0.93
2022-09-02T15:58:12.075Z,0.80
2022-09-02T16:00:41.599Z,0.80
2022-09-02T16:03:11.781Z,1.02
2022-09-02T16:05:39.495Z,0.73
2022-09-02T16:08:07.128Z,0.80
2022-09-02T16:10:36.748Z,1.42
2022-09-02T16:13:04.902Z,0.80
2022-09-02T16:15:34.457Z,1.20
2022-09-02T16:18:02.124Z,1.00
2022-09-02T16:20:29.838Z,0.60
2022-09-02T16:22:57.495Z,0.68
2022-09-02T16:25:25.206Z,0.93
2022-09-02T16:27:52.731Z,1.13
2022-09-02T16:30:20.681Z,1.05
2022-09-02T16:32:50.635Z,0.70
2022-09-02T16:35:18.129Z,1.10
2022-09-02T16:37:45.784Z,0.98
2022-09-02T16:40:21.087Z,0.82
2022-09-02T16:42:49.415Z,1.02
2022-09-02T16:45:17.163Z,0.90
2022-09-02T16:47:44.723Z,1.02
2022-09-02T16:50:12.625Z,0.95
2022-09-02T16:52:41.064Z,1.27
2022-09-02T16:55:08.749Z,1.13
2022-09-02T16:57:36.271Z,1.30
2022-09-02T17:00:05.371Z,1.10
2022-09-02T17:02:32.990Z,0.90
2022-09-02T17:05:00.396Z,1.13
2022-09-02T17:07:27.898Z,0.82
2022-09-02T17:09:55.368Z,1.15
2022-09-02T17:12:22.809Z,1.02
2022-09-02T17:14:50.468Z,1.00
2022-09-02T17:17:19.087Z,0.98
2022-09-02T17:19:46.307Z,1.55
2022-09-02T17:22:13.704Z,1.73
2022-09-02T17:24:41.950Z,1.77
2022-09-02T17:27:09.380Z,2.47
2022-09-02T17:29:51.930Z,2.10
2022-09-02T17:32:20.349Z,2.13
2022-09-02T17:34:49.435Z,2.22
2022-09-02T17:37:17.137Z,1.70
2022-09-02T17:39:46.152Z,1.55
2022-09-02T17:42:14.974Z,1.20
2022-09-02T17:44:42.889Z,1.15
2022-09-02T17:47:21.830Z,1.58
2022-09-02T17:49:49.912Z,1.00
2022-09-02T17:52:23.235Z,0.82
2022-09-02T17:54:52.719Z,1.20
2022-09-02T17:57:42.462Z,1.90
2022-09-02T18:00:16.797Z,1.38
2022-09-02T18:03:10.873Z,1.27
2022-09-02T18:05:53.508Z,1.20
2022-09-02T18:08:27.248Z,2.10
2022-09-02T18:10:58.448Z,1.58
2022-09-02T18:13:41.387Z,2.40
2022-09-02T18:16:32.988Z,2.85
2022-09-02T18:19:37.511Z,2.15
2022-09-02T18:22:19.375Z,2.22
2022-09-02T18:24:58.751Z,2.65
2022-09-02T18:27:52.401Z,2.22
2022-09-02T18:30:24.596Z,2.70
2022-09-02T18:33:04.321Z,2.08
2022-09-02T18:35:40.895Z,2.25
2022-09-02T18:38:42.144Z,1.70
2022-09-02T18:41:13.454Z,2.10
2022-09-02T18:44:21.827Z,1.63
2022-09-02T18:46:54.108Z,1.20
2022-09-02T18:49:24.191Z,1.30
2022-09-02T18:51:56.927Z,1.45
2022-09-02T18:54:51.672Z,1.25
2022-09-02T18:57:19.361Z,1.30
2022-09-02T19:00:07.520Z,1.55
2022-09-02T19:02:49.306Z,1.40
2022-09-02T19:05:20.606Z,1.50
2022-09-02T19:08:18.986Z,1.38
2022-09-02T19:10:46.561Z,1.20
2022-09-02T19:13:15.093Z,1.35
2022-09-02T19:15:43.096Z,1.20
2022-09-02T19:18:11.878Z,1.02
2022-09-02T19:20:39.551Z,1.67
2022-09-02T19:23:11.369Z,1.80
2022-09-02T19:25:44.017Z,1.90
2022-09-02T19:28:13.982Z,2.58
2022-09-02T19:30:41.592Z,2.60
2022-09-02T19:33:11.051Z,2.85
2022-09-02T19:35:45.222Z,3.08
2022-09-02T19:38:16.067Z,2.08
2022-09-02T19:40:45.387Z,2.28
2022-09-02T19:43:16.072Z,2.67
2022-09-02T19:45:43.822Z,2.35
2022-09-02T19:48:11.665Z,1.90
2022-09-02T19:50:42.083Z,1.30
2022-09-02T19:53:19.982Z,1.38
2022-09-02T19:55:47.464Z,1.00
2022-09-02T19:58:14.885Z,1.15
2022-09-02T20:00:43.349Z,0.82
2022-09-02T20:03:11.478Z,1.20
2022-09-02T20:05:40.865Z,1.30
2022-09-02T20:08:10.092Z,1.23
2022-09-02T20:10:38.886Z,1.17
2022-09-02T20:13:06.894Z,0.98
2022-09-02T20:15:37.710Z,1.20
2022-09-02T20:18:11.695Z,1.23
2022-09-02T20:20:46.313Z,0.90
2022-09-02T20:23:17.532Z,1.10
2022-09-02T20:26:16.306Z,1.23
2022-09-02T20:29:19.152Z,1.33
2022-09-02T20:32:13.641Z,1.48
2022-09-02T20:34:44.075Z,1.17
2022-09-02T20:38:05.769Z,1.00
2022-09-02T20:40:48.859Z,1.10
2022-09-02T20:43:53.560Z,0.82
2022-09-02T20:46:37.446Z,1.10
2022-09-02T20:49:37.591Z,1.08
2022-09-02T20:52:13.576Z,0.95
2022-09-02T20:55:05.544Z,1.20
2022-09-02T20:57:41.734Z,1.23
2022-09-02T21:00:16.432Z,1.50
2022-09-02T21:03:01.456Z,1.10
2022-09-02T21:05:35.240Z,1.23
2022-09-02T21:08:10.171Z,1.23
2022-09-02T21:10:52.111Z,1.00
2022-09-02T21:13:33.935Z,1.20
2022-09-02T21:16:09.145Z,1.20
2022-09-02T21:19:13.968Z,1.40
2022-09-02T21:21:55.803Z,1.55
2022-09-02T21:24:35.799Z,1.35
2022-09-02T21:27:27.559Z,1.40
2022-09-02T21:30:08.468Z,1.27
2022-09-02T21:32:38.810Z,1.42
2022-09-02T21:35:21.267Z,1.40
2022-09-02T21:37:54.636Z,1.00
2022-09-02T21:40:30.428Z,1.15
2022-09-02T21:43:15.918Z,1.30
2022-09-02T21:46:01.340Z,1.30
2022-09-02T21:48:33.753Z,1.50
2022-09-02T21:51:08.606Z,1.20
2022-09-02T21:53:47.986Z,1.05
2022-09-02T21:56:38.694Z,1.42
2022-09-02T21:59:14.392Z,1.55
2022-09-02T22:01:49.926Z,1.38
2022-09-02T22:04:42.665Z,1.55
2022-09-02T22:07:28.466Z,1.15
2022-09-02T22:10:16.506Z,1.00
2022-09-02T22:12:51.909Z,1.40
2022-09-02T22:15:56.414Z,1.13
2022-09-02T22:18:49.070Z,1.52
2022-09-02T22:21:27.136Z,1.60
2022-09-02T22:23:55.324Z,1.48
2022-09-02T22:26:41.640Z,1.50
2022-09-02T22:29:21.107Z,1.33
2022-09-02T22:31:53.415Z,1.30
2022-09-02T22:34:23.546Z,1.15
2022-09-02T22:36:59.446Z,1.27
2022-09-02T22:39:33.820Z,1.40
2022-09-02T22:42:34.282Z,1.13
2022-09-02T22:45:49.058Z,1.45
2022-09-02T22:48:40.402Z,1.55
2022-09-02T22:51:36.380Z,1.65
2022-09-02T22:54:04.208Z,1.80
2022-09-02T22:56:47.164Z,1.45
2022-09-02T22:59:29.900Z,1.30
2022-09-02T23:02:16.139Z,1.15
2022-09-02T23:05:45.234Z,1.50
2022-09-02T23:08:15.184Z,1.17
2022-09-02T23:10:50.791Z,1.33
2022-09-02T23:13:23.429Z,1.15
2022-09-02T23:16:11.021Z,1.33
2022-09-02T23:18:52.044Z,1.23
2022-09-02T23:21:43.434Z,1.20
2022-09-02T23:24:48.538Z,1.10
2022-09-02T23:27:30.175Z,1.23
2022-09-02T23:29:58.054Z,1.23
2022-09-02T23:32:43.607Z,1.30
2022-09-02T23:35:53.620Z,1.48
2022-09-02T23:38:35.436Z,1.58
2022-09-02T23:41:08.752Z,1.45
2022-09-02T23:43:40.479Z,1.23
2022-09-02T23:46:35.341Z,1.75
2022-09-02T23:49:25.404Z,1.10
2022-09-02T23:52:15.116Z,1.25
2022-09-02T23:55:18.132Z,1.27
2022-09-02T23:58:11.226Z,1.45
